Time;durP1;ratioP1;P1;durP2;ratioP2;P2;SDS_P1;SDS_P2;PMS_P1;PMS_P2;Temp;Humidity;BMP_temperature;BMP_pressure;BME280_temperature;BME280_humidity;BME280_pressure;Samples;Min_cycle;Max_cycle;Signal;HPM_P1;HPM_P2
2023/04/20 00:01:25;;;;;;;12.53;9.90;;;;;;;;;;5090570;28;20254;-74
2023/04/20 00:03:52;;;;;;;15.20;9.87;;;;;;;;;;5090924;28;20674;-74
2023/04/20 00:06:20;;;;;;;11.33;9.53;;;;;;;;;;5090389;28;20727;-73
2023/04/20 00:08:48;;;;;;;11.47;9.93;;;;;;;;;;5070372;28;20261;-73
2023/04/20 00:11:15;;;;;;;10.97;9.27;;;;;;;;;;5054625;28;20257;-74
2023/04/20 00:13:42;;;;;;;12.37;9.77;;;;;;;;;;5050322;28;20206;-74
2023/04/20 00:16:09;;;;;;;12.03;9.87;;;;;;;;;;5050794;28;20226;-73
2023/04/20 00:18:37;;;;;;;12.30;9.10;;;;;;;;;;5038754;28;20428;-74
2023/04/20 00:21:05;;;;;;;10.97;8.90;;;;;;;;;;5079849;28;20252;-73
2023/04/20 00:23:32;;;;;;;10.37;9.10;;;;;;;;;;5089826;28;20217;-73
2023/04/20 00:25:59;;;;;;;12.53;10.20;;;;;;;;;;5082462;28;20251;-73
2023/04/20 00:28:26;;;;;;;11.13;9.43;;;;;;;;;;5069692;28;20224;-74
2023/04/20 00:30:53;;;;;;;11.30;9.10;;;;;;;;;;5061841;28;20217;-74
2023/04/20 00:33:21;;;;;;;10.33;9.23;;;;;;;;;;5069528;28;20201;-73
2023/04/20 00:35:48;;;;;;;10.30;8.80;;;;;;;;;;5069143;28;20213;-72
2023/04/20 00:38:15;;;;;;;11.90;9.20;;;;;;;;;;5070068;28;20628;-74
2023/04/20 00:40:43;;;;;;;11.67;9.10;;;;;;;;;;5052407;28;20209;-73
2023/04/20 00:43:11;;;;;;;10.97;9.37;;;;;;;;;;5081822;28;20243;-74
2023/04/20 00:45:38;;;;;;;11.33;9.40;;;;;;;;;;5090746;28;20251;-74
2023/04/20 00:48:06;;;;;;;12.77;10.07;;;;;;;;;;5089029;28;20299;-74
2023/04/20 00:50:34;;;;;;;11.30;10.03;;;;;;;;;;5069644;28;20197;-74
2023/04/20 00:53:02;;;;;;;13.70;10.57;;;;;;;;;;5052709;28;20745;-74
2023/04/20 00:55:30;;;;;;;13.13;10.20;;;;;;;;;;5070195;28;20308;-74
2023/04/20 00:57:57;;;;;;;11.13;9.63;;;;;;;;;;5070161;28;20217;-73
2023/04/20 01:00:26;;;;;;;12.53;9.73;;;;;;;;;;5069524;28;20636;-74
2023/04/20 01:02:53;;;;;;;10.63;9.20;;;;;;;;;;5069815;28;20316;-74
2023/04/20 01:05:21;;;;;;;13.70;10.67;;;;;;;;;;5069604;28;20630;-74
2023/04/20 01:07:49;;;;;;;15.87;11.87;;;;;;;;;;5051846;28;20651;-74
2023/04/20 01:10:16;;;;;;;13.13;10.70;;;;;;;;;;5051940;28;20283;-72
2023/04/20 01:12:44;;;;;;;13.27;10.77;;;;;;;;;;5051128;28;20209;-74
2023/04/20 01:15:11;;;;;;;11.77;10.47;;;;;;;;;;5069963;28;20730;-74
2023/04/20 01:17:39;;;;;;;12.57;10.50;;;;;;;;;;5052151;28;20643;-74
2023/04/20 01:20:11;;;;;;;13.97;9.93;;;;;;;;;;5051085;28;20482;-74
2023/04/20 01:22:45;;;;;;;12.80;10.43;;;;;;;;;;5051687;28;20216;-73
2023/04/20 01:25:13;;;;;;;16.00;11.27;;;;;;;;;;5069728;28;20499;-74
2023/04/20 01:27:40;;;;;;;15.07;11.77;;;;;;;;;;5051450;28;20189;-74
2023/04/20 01:30:08;;;;;;;16.10;12.10;;;;;;;;;;5051410;28;20310;-74
2023/04/20 01:32:35;;;;;;;16.47;13.07;;;;;;;;;;5069406;28;20687;-74
2023/04/20 01:35:03;;;;;;;16.60;12.77;;;;;;;;;;5069224;28;20238;-73
2023/04/20 01:37:30;;;;;;;20.50;14.33;;;;;;;;;;5069106;28;20308;-75
2023/04/20 01:39:57;;;;;;;18.23;13.67;;;;;;;;;;5051406;28;20312;-73
2023/04/20 01:42:25;;;;;;;16.77;12.73;;;;;;;;;;5069198;28;20308;-73
2023/04/20 01:44:52;;;;;;;15.73;12.47;;;;;;;;;;5076245;28;20206;-73
2023/04/20 01:47:19;;;;;;;17.10;12.53;;;;;;;;;;5069972;28;20228;-74
2023/04/20 01:49:46;;;;;;;15.83;12.67;;;;;;;;;;5069216;28;20758;-74
2023/04/20 01:52:14;;;;;;;16.43;12.93;;;;;;;;;;5069333;28;20218;-73
2023/04/20 01:54:41;;;;;;;15.73;12.07;;;;;;;;;;5069016;28;20209;-74
2023/04/20 01:57:08;;;;;;;16.80;13.87;;;;;;;;;;5051344;28;20576;-74
2023/04/20 01:59:35;;;;;;;15.97;13.40;;;;;;;;;;5068317;28;20229;-74
2023/04/20 02:02:03;;;;;;;15.93;12.63;;;;;;;;;;5069782;28;20248;-74
2023/04/20 02:04:30;;;;;;;13.93;11.33;;;;;;;;;;5072482;28;20288;-74
2023/04/20 02:06:58;;;;;;;14.50;12.07;;;;;;;;;;5072681;28;20275;-73
2023/04/20 02:09:25;;;;;;;14.10;11.70;;;;;;;;;;5076266;28;20243;-74
2023/04/20 02:11:52;;;;;;;14.90;11.37;;;;;;;;;;5074716;28;20228;-74
2023/04/20 02:14:20;;;;;;;14.07;11.23;;;;;;;;;;5055071;28;20219;-73
2023/04/20 02:16:48;;;;;;;15.23;11.70;;;;;;;;;;5072659;28;20338;-74
2023/04/20 02:19:15;;;;;;;11.73;10.50;;;;;;;;;;5072318;28;20225;-74
2023/04/20 02:21:42;;;;;;;14.17;11.60;;;;;;;;;;5072359;28;20219;-74
2023/04/20 02:24:10;;;;;;;15.13;11.67;;;;;;;;;;5072658;28;20229;-75
2023/04/20 02:26:38;;;;;;;16.10;12.67;;;;;;;;;;5072424;28;20205;-73
2023/04/20 02:29:05;;;;;;;15.43;12.57;;;;;;;;;;5071719;28;20263;-74
2023/04/20 02:31:33;;;;;;;15.90;12.83;;;;;;;;;;5071964;28;20543;-73
2023/04/20 02:34:01;;;;;;;18.60;12.00;;;;;;;;;;5088135;28;20716;-74
2023/04/20 02:36:28;;;;;;;16.57;11.43;;;;;;;;;;5084191;28;20240;-74
2023/04/20 02:38:55;;;;;;;24.00;13.17;;;;;;;;;;5072174;28;20226;-74
2023/04/20 02:41:23;;;;;;;18.57;11.97;;;;;;;;;;5054097;28;20240;-73
2023/04/20 02:43:50;;;;;;;16.77;11.73;;;;;;;;;;5053975;28;20649;-74
2023/04/20 02:46:18;;;;;;;14.03;11.67;;;;;;;;;;5072029;28;20256;-74
2023/04/20 02:48:45;;;;;;;15.67;13.33;;;;;;;;;;5071702;28;20221;-74
2023/04/20 02:51:12;;;;;;;15.63;12.67;;;;;;;;;;5072192;28;20248;-74
2023/04/20 02:53:40;;;;;;;15.83;12.80;;;;;;;;;;5053819;28;20201;-75
2023/04/20 02:56:07;;;;;;;17.10;13.00;;;;;;;;;;5071586;28;20638;-72
2023/04/20 02:58:34;;;;;;;15.60;12.50;;;;;;;;;;5071342;28;20694;-74
2023/04/20 03:01:03;;;;;;;15.67;11.97;;;;;;;;;;5071685;28;20205;-74
2023/04/20 03:03:30;;;;;;;13.53;11.50;;;;;;;;;;5071747;28;20266;-74
2023/04/20 03:05:58;;;;;;;12.83;11.03;;;;;;;;;;5071495;28;20208;-74
2023/04/20 03:08:25;;;;;;;14.23;11.50;;;;;;;;;;5071495;28;20845;-74
2023/04/20 03:10:53;;;;;;;11.30;10.10;;;;;;;;;;5071861;28;20237;-72
2023/04/20 03:13:20;;;;;;;13.97;10.57;;;;;;;;;;5053167;28;20210;-74
2023/04/20 03:15:47;;;;;;;11.13;9.97;;;;;;;;;;5061871;28;20822;-74
2023/04/20 03:18:15;;;;;;;13.00;11.23;;;;;;;;;;5051354;28;20290;-73
2023/04/20 03:20:42;;;;;;;15.27;12.40;;;;;;;;;;5064274;28;20305;-74
2023/04/20 03:23:09;;;;;;;16.70;12.77;;;;;;;;;;5070906;28;20229;-74
2023/04/20 03:25:37;;;;;;;18.77;12.80;;;;;;;;;;5071197;28;20213;-74
2023/04/20 03:28:04;;;;;;;12.60;11.07;;;;;;;;;;5072678;28;20233;-74
2023/04/20 03:30:32;;;;;;;13.33;11.43;;;;;;;;;;5091156;28;20205;-73
2023/04/20 03:32:59;;;;;;;14.30;11.87;;;;;;;;;;5073721;28;20678;-74
2023/04/20 03:35:27;;;;;;;14.67;12.10;;;;;;;;;;5073503;28;20278;-74
2023/04/20 03:37:54;;;;;;;14.67;12.50;;;;;;;;;;5091293;28;20284;-75
2023/04/20 03:40:21;;;;;;;15.77;12.93;;;;;;;;;;5091298;28;20261;-74
2023/04/20 03:42:49;;;;;;;12.40;11.10;;;;;;;;;;5090698;28;20217;-74
2023/04/20 03:45:16;;;;;;;15.57;12.43;;;;;;;;;;5091125;28;20204;-74
2023/04/20 03:47:43;;;;;;;12.10;10.43;;;;;;;;;;5090780;28;20192;-74
2023/04/20 03:50:12;;;;;;;12.53;10.47;;;;;;;;;;5091145;28;20270;-74
2023/04/20 03:52:39;;;;;;;11.00;9.80;;;;;;;;;;5090730;28;20201;-73
2023/04/20 03:55:07;;;;;;;10.27;9.17;;;;;;;;;;5072318;28;20204;-73
2023/04/20 03:57:34;;;;;;;15.90;9.17;;;;;;;;;;5090854;28;20291;-74
2023/04/20 04:00:03;;;;;;;11.17;9.60;;;;;;;;;;5090921;28;20907;-74
2023/04/20 04:02:31;;;;;;;10.83;8.47;;;;;;;;;;5091128;28;20209;-74
2023/04/20 04:04:58;;;;;;;12.50;10.90;;;;;;;;;;5089500;28;20201;-73
2023/04/20 04:07:25;;;;;;;10.37;9.20;;;;;;;;;;5070558;28;20205;-74
2023/04/20 04:09:52;;;;;;;33.03;9.40;;;;;;;;;;5070539;28;20263;-73
2023/04/20 04:12:20;;;;;;;11.97;9.93;;;;;;;;;;5078380;28;20655;-73
2023/04/20 04:14:47;;;;;;;10.00;9.00;;;;;;;;;;5053082;28;20252;-74
2023/04/20 04:17:14;;;;;;;14.60;9.57;;;;;;;;;;5070458;28;20205;-75
2023/04/20 04:19:42;;;;;;;24.60;9.43;;;;;;;;;;5069944;28;20278;-74
2023/04/20 04:22:09;;;;;;;29.80;10.33;;;;;;;;;;5069435;28;20643;-76
2023/04/20 04:24:37;;;;;;;13.77;9.83;;;;;;;;;;5070129;28;20252;-74
2023/04/20 04:27:05;;;;;;;10.67;9.57;;;;;;;;;;5069349;28;20205;-75
2023/04/20 04:29:37;;;;;;;13.63;12.23;;;;;;;;;;5070588;28;20212;-74
2023/04/20 04:32:05;;;;;;;13.50;12.10;;;;;;;;;;5078939;28;20631;-75
2023/04/20 04:34:33;;;;;;;13.47;11.70;;;;;;;;;;5069459;28;20201;-73
2023/04/20 04:37:00;;;;;;;12.60;10.97;;;;;;;;;;5069572;28;20870;-73
2023/04/20 04:39:28;;;;;;;12.10;10.83;;;;;;;;;;5069193;28;20749;-75
2023/04/20 04:41:56;;;;;;;11.17;10.07;;;;;;;;;;5069332;28;20613;-75
2023/04/20 04:44:24;;;;;;;11.90;10.60;;;;;;;;;;5051212;28;20308;-73
2023/04/20 04:46:52;;;;;;;13.30;10.73;;;;;;;;;;5069081;28;20205;-74
2023/04/20 04:49:20;;;;;;;16.67;12.53;;;;;;;;;;5069413;28;20715;-74
2023/04/20 04:51:47;;;;;;;13.47;11.57;;;;;;;;;;5069099;28;20240;-75
2023/04/20 04:54:14;;;;;;;10.53;9.43;;;;;;;;;;5068518;28;20241;-73
2023/04/20 04:56:42;;;;;;;12.90;10.50;;;;;;;;;;5081820;28;20259;-73
2023/04/20 04:59:09;;;;;;;14.33;10.30;;;;;;;;;;5079301;28;20217;-75
2023/04/20 05:01:36;;;;;;;12.30;10.93;;;;;;;;;;5090087;28;20197;-75
2023/04/20 05:04:04;;;;;;;12.20;10.63;;;;;;;;;;5058015;28;20232;-74
2023/04/20 05:06:31;;;;;;;13.43;10.63;;;;;;;;;;5069172;28;20544;-75
2023/04/20 05:08:59;;;;;;;12.00;10.70;;;;;;;;;;5051255;28;20722;-74
2023/04/20 05:11:26;;;;;;;14.13;10.77;;;;;;;;;;5068605;28;20194;-73
2023/04/20 05:13:53;;;;;;;11.37;10.20;;;;;;;;;;5069196;28;20215;-74
2023/04/20 05:16:21;;;;;;;12.97;11.33;;;;;;;;;;5069185;28;20232;-74
2023/04/20 05:18:48;;;;;;;15.13;11.23;;;;;;;;;;5068347;28;20260;-72
2023/04/20 05:21:16;;;;;;;16.80;12.70;;;;;;;;;;5068384;28;20252;-74
2023/04/20 05:23:43;;;;;;;15.57;12.40;;;;;;;;;;5068593;28;20233;-74
2023/04/20 05:26:11;;;;;;;17.40;11.90;;;;;;;;;;5068578;28;20205;-74
2023/04/20 05:28:38;;;;;;;14.00;12.23;;;;;;;;;;5069033;28;20860;-74
2023/04/20 05:31:06;;;;;;;14.93;12.30;;;;;;;;;;5051322;28;20284;-74
2023/04/20 05:33:34;;;;;;;15.80;11.53;;;;;;;;;;5068745;28;20205;-74
2023/04/20 05:36:01;;;;;;;15.57;11.83;;;;;;;;;;5068942;28;20226;-74
2023/04/20 05:38:28;;;;;;;12.00;10.73;;;;;;;;;;5072475;28;20594;-72
2023/04/20 05:40:55;;;;;;;15.70;13.37;;;;;;;;;;5073481;28;20213;-74
2023/04/20 05:43:23;;;;;;;16.13;13.80;;;;;;;;;;5073431;28;20262;-75
2023/04/20 05:45:50;;;;;;;15.07;12.23;;;;;;;;;;5072750;28;20244;-73
2023/04/20 05:48:17;;;;;;;15.77;13.03;;;;;;;;;;5075978;28;20701;-74
2023/04/20 05:50:45;;;;;;;19.57;15.60;;;;;;;;;;5093056;28;20205;-75
2023/04/20 05:53:12;;;;;;;18.27;14.43;;;;;;;;;;5092975;28;20197;-74
2023/04/20 05:55:39;;;;;;;17.40;14.17;;;;;;;;;;5092201;28;20243;-74
2023/04/20 05:58:06;;;;;;;16.23;14.30;;;;;;;;;;5078591;28;20206;-73
2023/04/20 06:00:34;;;;;;;21.23;15.50;;;;;;;;;;5071939;28;20202;-75
2023/04/20 06:03:02;;;;;;;14.27;11.93;;;;;;;;;;5072070;28;20225;-74
2023/04/20 06:05:30;;;;;;;14.47;12.43;;;;;;;;;;5072781;28;20263;-74
2023/04/20 06:07:57;;;;;;;17.23;13.50;;;;;;;;;;5054361;28;20205;-74
2023/04/20 06:10:25;;;;;;;32.10;24.37;;;;;;;;;;5072454;28;20194;-74
2023/04/20 06:12:52;;;;;;;24.23;18.83;;;;;;;;;;5072254;28;20201;-74
2023/04/20 06:15:19;;;;;;;23.17;18.00;;;;;;;;;;5072088;28;20596;-74
2023/04/20 06:17:47;;;;;;;24.93;18.63;;;;;;;;;;5071617;28;20256;-74
2023/04/20 06:20:14;;;;;;;23.07;16.90;;;;;;;;;;5081405;28;20247;-74
2023/04/20 06:22:46;;;;;;;20.10;16.50;;;;;;;;;;5074140;28;20232;-75
2023/04/20 06:25:14;;;;;;;22.23;16.87;;;;;;;;;;5088528;28;20205;-74
2023/04/20 06:27:42;;;;;;;34.57;18.53;;;;;;;;;;5085354;28;20197;-73
2023/04/20 06:30:09;;;;;;;25.43;16.70;;;;;;;;;;5074081;28;20225;-74
2023/04/20 06:32:37;;;;;;;22.07;15.60;;;;;;;;;;5071622;28;20293;-74
2023/04/20 06:35:05;;;;;;;22.47;16.13;;;;;;;;;;5072285;28;20216;-75
2023/04/20 06:37:35;;;;;;;24.17;15.53;;;;;;;;;;5072284;28;20248;-74
2023/04/20 06:40:09;;;;;;;22.50;15.93;;;;;;;;;;5072152;28;20221;-74
2023/04/20 06:42:36;;;;;;;26.03;15.73;;;;;;;;;;5071786;28;20201;-73
2023/04/20 06:45:05;;;;;;;23.83;15.23;;;;;;;;;;5071523;28;20257;-75
2023/04/20 06:47:32;;;;;;;29.90;16.87;;;;;;;;;;5054035;28;20227;-74
2023/04/20 06:50:01;;;;;;;25.30;16.27;;;;;;;;;;5070910;28;20243;-73
2023/04/20 06:52:30;;;;;;;29.90;17.13;;;;;;;;;;5071613;28;20286;-74
2023/04/20 06:54:59;;;;;;;25.63;17.60;;;;;;;;;;5087369;28;20204;-74
2023/04/20 06:57:26;;;;;;;27.33;17.50;;;;;;;;;;5091502;28;20208;-73
2023/04/20 06:59:53;;;;;;;32.17;17.77;;;;;;;;;;5091065;28;20320;-72
2023/04/20 07:02:21;;;;;;;23.23;15.97;;;;;;;;;;5091267;28;20244;-73
2023/04/20 07:04:49;;;;;;;33.23;16.50;;;;;;;;;;5083162;28;20228;-74
2023/04/20 07:07:16;;;;;;;21.13;13.57;;;;;;;;;;5071247;28;20209;-74
2023/04/20 07:09:43;;;;;;;22.57;14.60;;;;;;;;;;5072261;28;20593;-74
2023/04/20 07:12:14;;;;;;;23.07;14.90;;;;;;;;;;5072118;28;20248;-74
2023/04/20 07:14:42;;;;;;;21.03;14.43;;;;;;;;;;5053743;28;20215;-74
2023/04/20 07:17:09;;;;;;;21.37;15.00;;;;;;;;;;5071870;28;20213;-73
2023/04/20 07:19:36;;;;;;;17.90;14.20;;;;;;;;;;5071359;28;20309;-74
2023/04/20 07:22:04;;;;;;;19.67;15.57;;;;;;;;;;5071106;28;20247;-73
2023/04/20 07:24:31;;;;;;;24.07;14.93;;;;;;;;;;5076141;28;20271;-72
2023/04/20 07:26:58;;;;;;;20.07;14.83;;;;;;;;;;5090987;28;20284;-74
2023/04/20 07:29:25;;;;;;;21.40;14.90;;;;;;;;;;5091238;28;20221;-73
2023/04/20 07:31:52;;;;;;;18.03;13.13;;;;;;;;;;5091357;28;20256;-74
2023/04/20 07:34:20;;;;;;;18.30;13.40;;;;;;;;;;5081151;28;20274;-73
2023/04/20 07:36:48;;;;;;;15.07;13.07;;;;;;;;;;5070275;28;20251;-73
2023/04/20 07:39:15;;;;;;;16.73;14.23;;;;;;;;;;5071023;28;20597;-74
2023/04/20 07:41:42;;;;;;;19.20;14.70;;;;;;;;;;5071171;28;20213;-74
2023/04/20 07:44:12;;;;;;;18.13;14.70;;;;;;;;;;5079370;28;20222;-74
2023/04/20 07:46:39;;;;;;;17.97;14.73;;;;;;;;;;5083623;28;20239;-74
2023/04/20 07:49:06;;;;;;;17.60;14.23;;;;;;;;;;5070108;28;20351;-74
2023/04/20 07:51:34;;;;;;;17.63;14.20;;;;;;;;;;5070706;28;20237;-74
2023/04/20 07:54:02;;;;;;;18.40;15.13;;;;;;;;;;5052628;28;20233;-73
2023/04/20 07:56:31;;;;;;;36.87;24.37;;;;;;;;;;5070451;28;20267;-73
2023/04/20 07:58:58;;;;;;;31.27;20.87;;;;;;;;;;5049995;28;20234;-74
2023/04/20 08:01:25;;;;;;;15.30;12.90;;;;;;;;;;5049573;28;20242;-74
2023/04/20 08:03:54;;;;;;;14.17;12.67;;;;;;;;;;5050095;28;20341;-73
2023/04/20 08:06:22;;;;;;;15.13;12.43;;;;;;;;;;5050396;28;20210;-73
2023/04/20 08:08:50;;;;;;;14.73;12.77;;;;;;;;;;5064678;28;20252;-74
2023/04/20 08:11:17;;;;;;;12.97;11.50;;;;;;;;;;5055931;28;20189;-73
2023/04/20 08:13:44;;;;;;;13.80;11.90;;;;;;;;;;5072587;28;20205;-73
2023/04/20 08:16:12;;;;;;;13.50;12.10;;;;;;;;;;5070554;28;20832;-74
2023/04/20 08:18:39;;;;;;;14.50;12.50;;;;;;;;;;5086294;28;20233;-73
2023/04/20 08:21:06;;;;;;;14.90;13.37;;;;;;;;;;5069972;28;20263;-73
2023/04/20 08:23:34;;;;;;;16.20;13.57;;;;;;;;;;5076218;28;20654;-74
2023/04/20 08:26:02;;;;;;;16.30;13.60;;;;;;;;;;5069775;28;20239;-75
2023/04/20 08:28:30;;;;;;;15.93;13.33;;;;;;;;;;5081577;28;20229;-73
2023/04/20 08:31:00;;;;;;;15.90;13.37;;;;;;;;;;5089487;28;20215;-73
2023/04/20 08:33:28;;;;;;;16.03;13.80;;;;;;;;;;5072675;28;20205;-74
2023/04/20 08:35:55;;;;;;;14.10;12.60;;;;;;;;;;5088195;28;20935;-74
2023/04/20 08:38:23;;;;;;;14.13;12.40;;;;;;;;;;5076007;28;20290;-74
2023/04/20 08:41:00;;;;;;;14.07;12.57;;;;;;;;;;5071351;28;20200;-73
2023/04/20 08:43:27;;;;;;;16.40;13.53;;;;;;;;;;5055955;28;20223;-74
2023/04/20 08:45:59;;;;;;;14.60;12.63;;;;;;;;;;5069699;28;20275;-75
2023/04/20 08:48:29;;;;;;;16.23;13.87;;;;;;;;;;5069282;28;20275;-74
2023/04/20 08:51:00;;;;;;;16.77;14.00;;;;;;;;;;5085549;28;20616;-72
2023/04/20 08:53:27;;;;;;;16.23;14.13;;;;;;;;;;5076980;28;20280;-73
2023/04/20 08:55:56;;;;;;;13.43;12.13;;;;;;;;;;5056474;28;20206;-74
2023/04/20 08:58:33;;;;;;;13.30;11.90;;;;;;;;;;5064758;28;20236;-74
2023/04/20 09:01:03;;;;;;;13.30;11.37;;;;;;;;;;5077261;28;20204;-73
2023/04/20 09:03:31;;;;;;;11.50;10.30;;;;;;;;;;5050229;28;20206;-74
2023/04/20 09:05:59;;;;;;;13.70;11.90;;;;;;;;;;5070931;28;20868;-74
2023/04/20 09:08:37;;;;;;;13.30;11.90;;;;;;;;;;5070603;28;20624;-74
2023/04/20 09:11:04;;;;;;;13.23;11.83;;;;;;;;;;5072120;28;20189;-73
2023/04/20 09:13:32;;;;;;;14.03;12.53;;;;;;;;;;5067940;28;20213;-73
2023/04/20 09:16:12;;;;;;;12.20;11.00;;;;;;;;;;5051679;28;20274;-74
2023/04/20 09:18:39;;;;;;;12.53;11.00;;;;;;;;;;5059967;28;20226;-72
2023/04/20 09:21:07;;;;;;;14.07;12.57;;;;;;;;;;5059444;28;20679;-74
2023/04/20 09:23:35;;;;;;;12.30;10.93;;;;;;;;;;5069166;28;20212;-73
2023/04/20 09:26:02;;;;;;;10.80;9.77;;;;;;;;;;5064603;28;20240;-72
2023/04/20 09:28:39;;;;;;;10.93;9.83;;;;;;;;;;5055993;28;20633;-74
2023/04/20 09:31:16;;;;;;;10.83;9.73;;;;;;;;;;5075817;28;20647;-73
2023/04/20 09:34:00;;;;;;;12.00;10.73;;;;;;;;;;5069041;28;20217;-74
2023/04/20 09:36:36;;;;;;;11.60;10.50;;;;;;;;;;5053571;28;20193;-73
2023/04/20 09:39:07;;;;;;;10.33;9.27;;;;;;;;;;5079743;28;20216;-74
2023/04/20 09:41:36;;;;;;;10.10;9.20;;;;;;;;;;5068525;28;20193;-74
2023/04/20 09:44:07;;;;;;;10.27;9.27;;;;;;;;;;5068590;28;20259;-75
2023/04/20 09:46:35;;;;;;;9.73;8.53;;;;;;;;;;5068489;28;20205;-74
2023/04/20 09:49:03;;;;;;;9.67;8.70;;;;;;;;;;5048673;28;20260;-74
2023/04/20 09:51:32;;;;;;;9.00;8.17;;;;;;;;;;5069232;28;20644;-74
2023/04/20 09:54:00;;;;;;;8.40;7.63;;;;;;;;;;5066995;28;20618;-74
2023/04/20 09:56:28;;;;;;;8.07;7.37;;;;;;;;;;5060009;28;20230;-73
2023/04/20 09:58:56;;;;;;;8.27;7.57;;;;;;;;;;5066748;28;20247;-74
2023/04/20 10:01:23;;;;;;;8.40;7.60;;;;;;;;;;5057850;28;20200;-72
2023/04/20 10:03:55;;;;;;;9.37;8.40;;;;;;;;;;5068693;28;20300;-74
2023/04/20 10:06:27;;;;;;;9.27;8.37;;;;;;;;;;5061162;28;20589;-74
2023/04/20 10:08:54;;;;;;;7.07;6.47;;;;;;;;;;5047852;28;20256;-73
2023/04/20 10:11:31;;;;;;;8.83;8.03;;;;;;;;;;5065026;28;20194;-74
2023/04/20 10:14:19;;;;;;;7.60;7.00;;;;;;;;;;5063961;28;20201;-73
2023/04/20 10:16:57;;;;;;;7.10;6.50;;;;;;;;;;5050710;28;20869;-74
2023/04/20 10:19:35;;;;;;;7.70;7.00;;;;;;;;;;5067741;28;20312;-74
2023/04/20 10:22:03;;;;;;;8.40;7.60;;;;;;;;;;5062146;28;20242;-74
2023/04/20 10:24:31;;;;;;;8.43;7.70;;;;;;;;;;5074329;28;20233;-75
2023/04/20 10:26:58;;;;;;;6.30;5.80;;;;;;;;;;5053058;28;20201;-72
2023/04/20 10:29:26;;;;;;;8.40;7.60;;;;;;;;;;5071135;28;20375;-73
2023/04/20 10:31:54;;;;;;;8.80;8.00;;;;;;;;;;5057094;28;20201;-72
2023/04/20 10:34:31;;;;;;;7.03;6.43;;;;;;;;;;5071704;28;20197;-73
2023/04/20 10:37:09;;;;;;;7.73;7.03;;;;;;;;;;5050540;28;20255;-74
2023/04/20 10:39:36;;;;;;;8.40;7.60;;;;;;;;;;5080031;28;20217;-74
2023/04/20 10:42:04;;;;;;;8.60;7.70;;;;;;;;;;5072039;28;20316;-73
2023/04/20 10:44:33;;;;;;;7.90;7.10;;;;;;;;;;5079519;28;20229;-72
2023/04/20 10:47:00;;;;;;;8.87;6.70;;;;;;;;;;5074892;28;20201;-73
2023/04/20 10:49:28;;;;;;;7.00;6.30;;;;;;;;;;5082788;28;20307;-72
2023/04/20 10:51:56;;;;;;;5.97;5.47;;;;;;;;;;5091519;28;20212;-74
2023/04/20 10:54:23;;;;;;;6.17;5.67;;;;;;;;;;5084764;28;20213;-74
2023/04/20 10:56:51;;;;;;;6.00;5.50;;;;;;;;;;5070804;28;20209;-73
2023/04/20 10:59:20;;;;;;;5.50;5.00;;;;;;;;;;5069780;28;20232;-73
2023/04/20 11:01:48;;;;;;;6.13;5.53;;;;;;;;;;5071048;28;20289;-73
2023/04/20 11:04:15;;;;;;;5.20;4.70;;;;;;;;;;5071536;28;20252;-75
2023/04/20 11:06:47;;;;;;;5.43;5.03;;;;;;;;;;5070116;28;20228;-72
2023/04/20 11:09:22;;;;;;;5.50;4.83;;;;;;;;;;5086466;28;20271;-75
2023/04/20 11:12:00;;;;;;;6.00;5.07;;;;;;;;;;5070807;28;20208;-75
2023/04/20 11:14:28;;;;;;;4.77;4.37;;;;;;;;;;5071606;28;20557;-75
2023/04/20 11:16:56;;;;;;;5.40;5.00;;;;;;;;;;5086007;28;20455;-75
2023/04/20 11:19:28;;;;;;;4.13;3.77;;;;;;;;;;5072031;28;20274;-74
2023/04/20 11:21:55;;;;;;;4.53;4.13;;;;;;;;;;5087550;28;20205;-75
2023/04/20 11:24:24;;;;;;;4.43;4.07;;;;;;;;;;5071691;28;20205;-75
2023/04/20 11:26:53;;;;;;;3.97;3.67;;;;;;;;;;5072131;28;20209;-75
2023/04/20 11:29:31;;;;;;;4.27;3.87;;;;;;;;;;5072258;28;20225;-75
2023/04/20 11:32:00;;;;;;;4.43;4.03;;;;;;;;;;5071207;28;20204;-75
2023/04/20 11:34:28;;;;;;;5.03;4.63;;;;;;;;;;5070093;28;20236;-76
2023/04/20 11:36:56;;;;;;;5.40;4.90;;;;;;;;;;5071121;28;20236;-75
2023/04/20 11:39:28;;;;;;;5.43;5.03;;;;;;;;;;5071110;28;20229;-74
2023/04/20 11:41:56;;;;;;;7.30;6.60;;;;;;;;;;5053598;28;20297;-74
2023/04/20 11:44:24;;;;;;;5.63;5.13;;;;;;;;;;5071164;28;20209;-75
2023/04/20 11:46:53;;;;;;;6.87;5.53;;;;;;;;;;5062932;28;20695;-75
2023/04/20 11:49:20;;;;;;;6.93;6.33;;;;;;;;;;5070923;28;20777;-75
2023/04/20 11:51:48;;;;;;;7.10;6.40;;;;;;;;;;5070786;28;20289;-74
2023/04/20 11:54:15;;;;;;;7.63;6.87;;;;;;;;;;5071232;28;20207;-74
2023/04/20 11:56:43;;;;;;;8.00;7.20;;;;;;;;;;5052532;28;20680;-75
2023/04/20 11:59:12;;;;;;;8.50;7.70;;;;;;;;;;5070275;28;20230;-74
2023/04/20 12:01:40;;;;;;;8.20;7.40;;;;;;;;;;5068604;28;20263;-74
2023/04/20 12:04:08;;;;;;;8.90;8.00;;;;;;;;;;5071294;28;20287;-74
2023/04/20 12:06:35;;;;;;;8.70;7.90;;;;;;;;;;5070380;28;20225;-73
2023/04/20 12:09:05;;;;;;;9.67;8.67;;;;;;;;;;5068980;28;20226;-75
2023/04/20 12:11:32;;;;;;;9.73;8.83;;;;;;;;;;5051797;28;20210;-75
2023/04/20 12:13:59;;;;;;;10.10;8.80;;;;;;;;;;5069974;28;20729;-74
2023/04/20 12:16:27;;;;;;;9.30;8.40;;;;;;;;;;5070199;28;20295;-74
2023/04/20 12:18:55;;;;;;;8.90;8.00;;;;;;;;;;5069100;28;20232;-75
2023/04/20 12:21:22;;;;;;;19.50;12.40;;;;;;;;;;5070229;28;20247;-74
2023/04/20 12:23:50;;;;;;;12.60;11.30;;;;;;;;;;5069029;28;20197;-75
2023/04/20 12:26:17;;;;;;;11.10;10.00;;;;;;;;;;5070092;28;20221;-75
2023/04/20 12:28:44;;;;;;;12.93;11.40;;;;;;;;;;5069572;28;20316;-74
2023/04/20 12:31:11;;;;;;;11.40;9.50;;;;;;;;;;5051806;28;20217;-75
2023/04/20 12:33:39;;;;;;;10.00;8.97;;;;;;;;;;5069734;28;20566;-76
2023/04/20 12:36:06;;;;;;;11.10;9.90;;;;;;;;;;5068690;28;20240;-75
2023/04/20 12:38:33;;;;;;;9.77;8.77;;;;;;;;;;5069783;28;20322;-75
2023/04/20 12:41:01;;;;;;;11.07;9.60;;;;;;;;;;5069846;28;20213;-75
2023/04/20 12:43:30;;;;;;;9.30;8.40;;;;;;;;;;5069874;28;20205;-74
2023/04/20 12:45:57;;;;;;;8.60;7.27;;;;;;;;;;5069776;28;20251;-75
2023/04/20 12:48:25;;;;;;;10.57;8.57;;;;;;;;;;5069984;28;20228;-73
2023/04/20 12:50:52;;;;;;;9.20;8.30;;;;;;;;;;5069873;28;20823;-75
2023/04/20 12:53:19;;;;;;;8.00;7.20;;;;;;;;;;5071197;28;20675;-75
2023/04/20 12:55:47;;;;;;;8.83;7.80;;;;;;;;;;5069452;28;20209;-75
2023/04/20 12:58:19;;;;;;;10.03;8.30;;;;;;;;;;5069758;28;20226;-74
2023/04/20 13:00:46;;;;;;;8.40;7.53;;;;;;;;;;5069757;28;20240;-74
2023/04/20 13:03:14;;;;;;;8.40;7.53;;;;;;;;;;5069544;28;20206;-75
2023/04/20 13:05:43;;;;;;;8.20;7.40;;;;;;;;;;5070055;28;20308;-73
2023/04/20 13:08:10;;;;;;;8.53;7.63;;;;;;;;;;5069035;28;20582;-74
2023/04/20 13:10:39;;;;;;;20.27;15.20;;;;;;;;;;5069191;28;20205;-73
2023/04/20 13:13:06;;;;;;;13.67;10.77;;;;;;;;;;5051229;28;20789;-73
2023/04/20 13:15:33;;;;;;;12.00;10.20;;;;;;;;;;5068850;28;20368;-75
2023/04/20 13:18:04;;;;;;;14.30;10.30;;;;;;;;;;5069324;28;20667;-74
2023/04/20 13:20:31;;;;;;;9.40;8.50;;;;;;;;;;5068834;28;20213;-73
2023/04/20 13:23:00;;;;;;;8.50;7.67;;;;;;;;;;5068786;28;20300;-74
2023/04/20 13:25:28;;;;;;;8.00;7.30;;;;;;;;;;5069313;28;20241;-75
2023/04/20 13:27:56;;;;;;;7.83;7.13;;;;;;;;;;5068563;28;20209;-74
2023/04/20 13:30:23;;;;;;;8.77;7.93;;;;;;;;;;5069887;28;20251;-72
2023/04/20 13:32:51;;;;;;;8.83;7.93;;;;;;;;;;5069165;28;20229;-75
2023/04/20 13:35:18;;;;;;;8.33;7.63;;;;;;;;;;5069199;28;20232;-75
2023/04/20 13:37:46;;;;;;;7.90;7.20;;;;;;;;;;5068503;28;20238;-75
2023/04/20 13:40:13;;;;;;;7.47;6.87;;;;;;;;;;5069989;28;20225;-74
2023/04/20 13:42:40;;;;;;;8.10;7.30;;;;;;;;;;5069637;28;20225;-75
2023/04/20 13:45:09;;;;;;;7.80;7.10;;;;;;;;;;5052318;28;20246;-75
2023/04/20 13:47:37;;;;;;;7.50;6.90;;;;;;;;;;5069649;28;20209;-75
2023/04/20 13:50:05;;;;;;;8.20;7.40;;;;;;;;;;5069578;28;20691;-75
2023/04/20 13:52:32;;;;;;;7.20;6.60;;;;;;;;;;5052024;28;20654;-75
2023/04/20 13:55:00;;;;;;;9.57;8.47;;;;;;;;;;5069220;28;20213;-74
2023/04/20 13:57:30;;;;;;;11.17;10.07;;;;;;;;;;5068651;28;20239;-74
2023/04/20 13:59:59;;;;;;;9.20;8.33;;;;;;;;;;5054942;28;20240;-75
2023/04/20 14:02:27;;;;;;;8.60;7.73;;;;;;;;;;5054590;28;20213;-73
2023/04/20 14:04:55;;;;;;;7.80;6.30;;;;;;;;;;5071772;28;20216;-74
2023/04/20 14:07:23;;;;;;;7.93;7.23;;;;;;;;;;5073222;28;20221;-74
2023/04/20 14:09:51;;;;;;;7.33;6.70;;;;;;;;;;5055358;28;20228;-74
2023/04/20 14:12:19;;;;;;;8.33;7.53;;;;;;;;;;5071930;28;20205;-74
2023/04/20 14:14:48;;;;;;;7.83;7.13;;;;;;;;;;5072776;28;20206;-74
2023/04/20 14:17:15;;;;;;;8.77;7.97;;;;;;;;;;5072802;28;20797;-74
2023/04/20 14:19:45;;;;;;;8.50;7.67;;;;;;;;;;5072048;28;20221;-74
2023/04/20 14:22:12;;;;;;;9.40;8.50;;;;;;;;;;5072961;28;20679;-74
2023/04/20 14:24:40;;;;;;;9.00;8.20;;;;;;;;;;5072407;28;20223;-74
2023/04/20 14:27:08;;;;;;;9.50;8.63;;;;;;;;;;5072223;28;20278;-74
2023/04/20 14:29:35;;;;;;;10.00;9.00;;;;;;;;;;5072836;28;20308;-73
2023/04/20 14:32:03;;;;;;;9.63;8.73;;;;;;;;;;5072114;28;20209;-74